Luxemburg, Iowa
Current Conditions -  °F | °C
As of 7:53 AM on Thursday 23 Oct 2014 (Local Time) from KDBQ Reporting Station
Broken Clouds Broken Clouds  
Wind Chill: 39°   Ceiling: 3800
Heat Index: 44°   Visibility: 10mi
Dew Point: 38°   Wind: 10mph
Humidity: 79%   Direction: 170°S
Pressure: 30.1"   Gusts: NA
Location:  42.6°N, 91.07°W
Report Text: KDBQ 231253Z 17009KT 10SM BKN038 07/03 A3010 RMK AO2 SLP200 T00670033
Loading
Personal Weather Stations






























Interactive Weather Map
Tropical Storm Tracking
New forecast layout! Learn more

10-Day Weather Forecast

Advertisements
Track Severe Weather on mobile